Time;durP1;ratioP1;P1;durP2;ratioP2;P2;SDS_P1;SDS_P2;PMS_P1;PMS_P2;Temp;Humidity;BMP_temperature;BMP_pressure;BME280_temperature;BME280_humidity;BME280_pressure;Samples;Min_cycle;Max_cycle;Signal;HPM_P1;HPM_P2
2022/07/05 00:01:09;;;;;;;4.28;3.10;;;9.90;99.90;;;;;;5051006;28;20080;-46
2022/07/05 00:03:35;;;;;;;4.90;3.10;;;10.60;99.90;;;;;;5050762;28;20041;-47
2022/07/05 00:06:00;;;;;;;4.30;3.15;;;10.00;99.90;;;;;;5050948;28;20048;-46
2022/07/05 00:08:26;;;;;;;5.63;3.08;;;9.80;99.90;;;;;;5051052;28;20048;-47
2022/07/05 00:10:52;;;;;;;4.07;2.70;;;10.10;99.90;;;;;;5048988;28;20497;-47
2022/07/05 00:13:18;;;;;;;5.38;3.75;;;10.10;99.90;;;;;;5049183;28;20116;-48
2022/07/05 00:15:44;;;;;;;4.95;3.25;;;9.60;99.90;;;;;;5050405;28;20036;-51
2022/07/05 00:18:10;;;;;;;3.72;3.00;;;10.50;99.90;;;;;;5050820;28;20052;-49
2022/07/05 00:20:38;;;;;;;4.25;3.63;;;9.90;99.90;;;;;;5050289;28;20502;-49
2022/07/05 00:23:03;;;;;;;6.10;2.90;;;9.40;99.90;;;;;;5050670;28;20036;-49
2022/07/05 00:25:29;;;;;;;5.28;2.90;;;10.00;99.90;;;;;;5050329;28;20489;-51
2022/07/05 00:27:54;;;;;;;4.85;3.90;;;9.50;99.90;;;;;;5050899;28;20053;-50
2022/07/05 00:30:20;;;;;;;8.23;3.72;;;9.70;99.90;;;;;;5050252;28;20048;-48
2022/07/05 00:32:46;;;;;;;8.73;3.78;;;9.80;99.90;;;;;;5050088;28;20080;-48
2022/07/05 00:35:12;;;;;;;4.03;3.15;;;10.60;99.90;;;;;;5048799;28;20407;-49
2022/07/05 00:37:37;;;;;;;4.70;3.30;;;9.90;99.90;;;;;;5050146;28;20044;-50
2022/07/05 00:40:07;;;;;;;5.25;3.42;;;9.70;99.90;;;;;;5048809;28;20454;-48
2022/07/05 00:42:33;;;;;;;5.70;3.03;;;9.50;99.90;;;;;;5048749;28;20156;-48
2022/07/05 00:44:59;;;;;;;5.85;3.30;;;9.60;99.90;;;;;;5048630;28;20040;-46
2022/07/05 00:47:25;;;;;;;7.22;3.38;;;9.60;99.90;;;;;;5050145;28;20414;-48
2022/07/05 00:49:50;;;;;;;4.90;3.00;;;9.90;99.90;;;;;;5049526;28;20489;-49
2022/07/05 00:52:16;;;;;;;5.15;2.90;;;9.60;99.90;;;;;;5050607;28;20079;-48
2022/07/05 00:54:42;;;;;;;4.10;3.17;;;10.20;99.90;;;;;;5048527;28;20044;-47
2022/07/05 00:57:08;;;;;;;6.50;3.28;;;9.60;99.90;;;;;;5048666;28;20049;-50
2022/07/05 00:59:34;;;;;;;4.78;3.10;;;9.70;99.90;;;;;;5048452;28;20045;-48
2022/07/05 01:02:00;;;;;;;5.07;3.22;;;9.30;99.90;;;;;;5050383;28;20529;-50
2022/07/05 01:04:26;;;;;;;5.90;3.55;;;9.60;99.90;;;;;;5050355;28;20049;-50
2022/07/05 01:06:53;;;;;;;6.20;3.67;;;9.60;99.90;;;;;;5050314;28;20471;-47
2022/07/05 01:09:20;;;;;;;5.38;3.20;;;10.10;99.90;;;;;;5049831;28;20052;-49
2022/07/05 01:11:47;;;;;;;4.20;3.38;;;9.50;99.90;;;;;;5049584;28;20518;-49
2022/07/05 01:14:16;;;;;;;6.53;3.33;;;10.00;99.90;;;;;;5048734;28;20129;-46
2022/07/05 01:16:42;;;;;;;5.75;3.33;;;9.10;99.90;;;;;;5049796;28;20045;-50
2022/07/05 01:19:10;;;;;;;5.72;3.50;;;9.20;99.90;;;;;;5048606;28;20051;-49
2022/07/05 01:21:41;;;;;;;6.22;3.63;;;9.10;99.90;;;;;;5049674;28;20053;-47
2022/07/05 01:24:11;;;;;;;6.18;4.05;;;9.20;99.90;;;;;;5050003;28;20053;-50
2022/07/05 01:26:38;;;;;;;6.15;3.42;;;9.00;99.90;;;;;;5048437;28;20399;-48
2022/07/05 01:29:04;;;;;;;4.95;4.20;;;9.10;99.90;;;;;;5050027;28;20037;-48
2022/07/05 01:31:30;;;;;;;4.65;3.92;;;9.10;99.90;;;;;;5049605;28;20049;-50
2022/07/05 01:33:56;;;;;;;4.85;3.20;;;9.80;99.90;;;;;;5049876;28;20068;-47
2022/07/05 01:36:22;;;;;;;7.85;3.47;;;9.40;99.90;;;;;;5048402;28;20123;-48
2022/07/05 01:38:49;;;;;;;5.28;3.15;;;10.10;99.90;;;;;;5053598;28;20208;-47
2022/07/05 01:41:14;;;;;;;4.53;3.10;;;9.20;99.90;;;;;;5052017;28;20421;-49
2022/07/05 01:43:40;;;;;;;4.50;3.40;;;10.30;99.90;;;;;;5053623;28;20040;-51
2022/07/05 01:46:08;;;;;;;6.93;3.38;;;9.40;99.90;;;;;;5052084;28;20478;-49
2022/07/05 01:48:37;;;;;;;8.65;3.83;;;9.30;99.90;;;;;;5053393;28;20041;-49
2022/07/05 01:51:09;;;;;;;4.65;3.40;;;10.10;99.90;;;;;;5052810;28;20560;-48
2022/07/05 01:53:38;;;;;;;6.95;4.22;;;9.40;99.90;;;;;;5052838;28;20548;-46
2022/07/05 01:56:04;;;;;;;6.50;4.22;;;9.10;99.90;;;;;;5053226;28;20047;-47
2022/07/05 01:58:31;;;;;;;6.35;3.88;;;8.90;99.90;;;;;;5053098;28;20045;-47
2022/07/05 02:00:58;;;;;;;5.97;3.55;;;9.30;99.90;;;;;;5053043;28;20098;-49
2022/07/05 02:03:24;;;;;;;5.90;3.60;;;9.20;99.90;;;;;;5053289;28;20045;-48
2022/07/05 02:05:50;;;;;;;6.78;3.70;;;8.80;99.90;;;;;;5053112;28;20136;-51
2022/07/05 02:08:17;;;;;;;7.10;3.55;;;9.50;99.90;;;;;;5053001;28;20494;-47
2022/07/05 02:10:43;;;;;;;6.38;3.85;;;9.40;99.90;;;;;;5052928;28;20072;-47
2022/07/05 02:13:10;;;;;;;5.63;3.70;;;9.20;99.90;;;;;;5052979;28;20761;-50
2022/07/05 02:15:38;;;;;;;7.05;4.80;;;8.20;99.90;;;;;;5053058;28;20045;-48
2022/07/05 02:18:06;;;;;;;7.38;3.92;;;9.60;99.90;;;;;;5053126;28;20037;-48
2022/07/05 02:20:32;;;;;;;7.95;4.22;;;9.50;99.90;;;;;;5053013;28;20056;-48
2022/07/05 02:22:58;;;;;;;8.93;4.65;;;9.50;99.90;;;;;;5053044;28;20121;-49
2022/07/05 02:25:25;;;;;;;6.63;4.40;;;9.50;99.90;;;;;;5052955;28;20055;-48
2022/07/05 02:27:52;;;;;;;8.10;5.03;;;8.70;99.90;;;;;;5052569;28;20044;-50
2022/07/05 02:30:19;;;;;;;7.97;4.28;;;8.70;99.90;;;;;;5052771;28;20037;-50
2022/07/05 02:32:45;;;;;;;7.13;4.22;;;8.50;99.90;;;;;;5051222;28;20393;-47
2022/07/05 02:35:12;;;;;;;7.18;4.22;;;9.00;99.90;;;;;;5052157;28;20044;-48
2022/07/05 02:37:39;;;;;;;12.57;4.60;;;8.50;99.90;;;;;;5051898;28;20045;-49
2022/07/05 02:40:10;;;;;;;7.40;5.22;;;8.80;99.90;;;;;;5052711;28;20064;-46
2022/07/05 02:42:36;;;;;;;8.27;5.05;;;8.50;99.90;;;;;;5052685;28;20471;-50
2022/07/05 02:45:02;;;;;;;6.75;4.97;;;8.80;99.90;;;;;;5051545;28;20044;-49
2022/07/05 02:47:31;;;;;;;7.90;5.50;;;8.50;99.90;;;;;;5052488;28;20052;-49
2022/07/05 02:50:05;;;;;;;7.65;4.88;;;8.60;99.90;;;;;;5051125;28;20114;-48
2022/07/05 02:52:31;;;;;;;7.75;5.05;;;8.50;99.90;;;;;;5051050;28;20084;-49
2022/07/05 02:54:57;;;;;;;8.95;5.57;;;8.70;99.90;;;;;;5052463;28;20087;-48
2022/07/05 02:57:22;;;;;;;6.95;4.75;;;9.40;99.90;;;;;;5052811;28;20665;-49
2022/07/05 02:59:48;;;;;;;9.10;5.10;;;8.70;99.90;;;;;;5052783;28;20398;-51
2022/07/05 03:02:14;;;;;;;8.15;4.93;;;8.60;99.90;;;;;;5052415;28;20041;-49
2022/07/05 03:04:39;;;;;;;9.93;5.22;;;8.60;99.90;;;;;;5052360;28;20033;-48
2022/07/05 03:07:05;;;;;;;9.40;5.13;;;8.30;99.90;;;;;;5051950;28;20045;-50
2022/07/05 03:09:31;;;;;;;7.95;5.45;;;8.60;99.90;;;;;;5050961;28;20045;-48
2022/07/05 03:11:56;;;;;;;10.02;6.85;;;9.60;99.90;;;;;;5051723;28;20109;-48
2022/07/05 03:14:22;;;;;;;12.85;6.22;;;9.30;99.90;;;;;;5052237;28;20052;-47
2022/07/05 03:16:48;;;;;;;7.85;6.05;;;8.70;99.90;;;;;;5050653;28;20037;-48
2022/07/05 03:19:13;;;;;;;8.18;5.75;;;8.50;99.90;;;;;;5049827;28;20403;-50
2022/07/05 03:21:39;;;;;;;10.77;6.30;;;8.50;99.90;;;;;;5050614;28;20142;-49
2022/07/05 03:24:05;;;;;;;9.88;7.00;;;8.60;99.90;;;;;;5051597;28;20048;-49
2022/07/05 03:26:30;;;;;;;10.23;7.00;;;8.50;99.90;;;;;;5051644;28;20097;-48
2022/07/05 03:28:56;;;;;;;11.70;7.93;;;8.80;99.90;;;;;;5049873;28;20148;-48
2022/07/05 03:31:22;;;;;;;11.80;7.20;;;9.70;99.90;;;;;;5051034;28;20072;-47
2022/07/05 03:33:48;;;;;;;11.20;7.55;;;8.80;99.90;;;;;;5050917;28;20048;-46
2022/07/05 03:36:13;;;;;;;10.90;6.97;;;8.80;99.90;;;;;;5051251;28;20235;-50
2022/07/05 03:38:39;;;;;;;12.18;7.40;;;9.90;99.90;;;;;;5049440;28;20443;-50
2022/07/05 03:41:05;;;;;;;10.63;7.80;;;8.90;99.90;;;;;;5049745;28;20094;-47
2022/07/05 03:43:30;;;;;;;14.60;8.75;;;8.70;99.90;;;;;;5049776;28;20376;-46
2022/07/05 03:45:56;;;;;;;14.32;9.13;;;9.10;99.90;;;;;;5050454;28;20485;-49
2022/07/05 03:48:22;;;;;;;14.35;9.77;;;8.90;99.90;;;;;;5051141;28;20545;-49
2022/07/05 03:50:47;;;;;;;13.57;9.23;;;9.10;99.90;;;;;;5051085;28;20049;-47
2022/07/05 03:53:13;;;;;;;11.98;9.00;;;9.20;99.90;;;;;;5050609;28;20037;-49
2022/07/05 03:55:39;;;;;;;16.25;10.63;;;9.50;99.90;;;;;;5050967;28;20043;-50
2022/07/05 03:58:07;;;;;;;12.13;8.75;;;10.20;99.90;;;;;;5050399;28;20059;-51
2022/07/05 04:00:33;;;;;;;18.63;9.75;;;9.50;99.90;;;;;;5050454;28;20502;-51
2022/07/05 04:02:59;;;;;;;17.88;9.98;;;9.60;99.90;;;;;;5049297;28;20391;-50
2022/07/05 04:05:25;;;;;;;14.27;10.85;;;9.70;99.90;;;;;;5050709;28;20041;-49
2022/07/05 04:07:52;;;;;;;16.40;11.85;;;10.30;99.90;;;;;;5045279;28;20056;-44
2022/07/05 04:10:19;;;;;;;16.80;10.25;;;9.90;99.90;;;;;;5044469;28;20059;-44
2022/07/05 04:12:45;;;;;;;14.05;10.43;;;9.70;99.90;;;;;;5045621;28;20179;-42
2022/07/05 04:15:11;;;;;;;15.70;11.52;;;9.60;99.90;;;;;;5046266;28;20562;-43
2022/07/05 04:17:54;;;;;;;16.27;10.77;;;10.00;99.90;;;;;;5046741;28;20051;-41
2022/07/05 04:20:21;;;;;;;17.10;11.25;;;10.30;99.90;;;;;;5046438;28;20132;-43
2022/07/05 04:22:48;;;;;;;14.80;11.50;;;10.70;99.90;;;;;;5046693;28;20063;-42
2022/07/05 04:25:17;;;;;;;15.77;11.07;;;10.50;99.90;;;;;;5046645;28;20102;-46
2022/07/05 04:27:47;;;;;;;16.38;10.95;;;10.40;99.90;;;;;;5046761;28;20425;-45
2022/07/05 04:30:13;;;;;;;19.83;12.75;;;10.60;99.90;;;;;;5046581;28;20604;-49
2022/07/05 04:32:42;;;;;;;15.75;12.77;;;10.60;99.90;;;;;;5047081;28;20490;-50
2022/07/05 04:35:08;;;;;;;16.42;11.68;;;10.80;99.90;;;;;;5046621;28;20043;-46
2022/07/05 04:37:34;;;;;;;15.45;11.00;;;10.80;99.90;;;;;;5047118;28;20044;-44
2022/07/05 04:40:00;;;;;;;11.63;9.95;;;11.60;99.90;;;;;;5047185;28;20048;-44
2022/07/05 04:42:25;;;;;;;12.52;9.48;;;11.20;99.90;;;;;;5046862;28;20079;-48
2022/07/05 04:44:51;;;;;;;11.98;8.75;;;11.20;99.90;;;;;;5047460;28;20073;-49
2022/07/05 04:47:17;;;;;;;9.63;7.82;;;12.40;99.90;;;;;;5048998;28;20044;-48
2022/07/05 04:49:42;;;;;;;10.27;8.10;;;11.80;99.90;;;;;;5049280;28;20049;-48
2022/07/05 04:52:08;;;;;;;11.82;9.05;;;11.50;99.90;;;;;;5048729;28;20041;-47
2022/07/05 04:54:35;;;;;;;12.25;8.63;;;11.90;99.90;;;;;;5048123;28;20045;-46
2022/07/05 04:57:00;;;;;;;10.63;8.35;;;12.50;99.90;;;;;;5048452;28;20053;-46
2022/07/05 04:59:26;;;;;;;10.20;8.93;;;12.10;99.90;;;;;;5048116;28;20037;-47
2022/07/05 05:01:52;;;;;;;10.35;7.80;;;12.40;99.90;;;;;;5048582;28;20036;-47
2022/07/05 05:04:17;;;;;;;8.93;7.68;;;12.50;99.90;;;;;;5048272;28;20428;-45
2022/07/05 05:06:43;;;;;;;9.27;7.63;;;12.90;99.90;;;;;;5048167;28;20427;-47
2022/07/05 05:09:08;;;;;;;10.43;8.85;;;13.10;99.90;;;;;;5048036;28;20083;-45
2022/07/05 05:11:34;;;;;;;9.15;7.60;;;13.70;99.90;;;;;;5047569;28;20056;-46
2022/07/05 05:14:00;;;;;;;9.73;6.53;;;14.10;99.90;;;;;;5051989;28;20079;-46
2022/07/05 05:16:25;;;;;;;7.63;6.85;;;13.60;99.90;;;;;;5050953;28;20041;-48
2022/07/05 05:18:51;;;;;;;8.30;6.25;;;13.90;99.90;;;;;;5052224;28;20075;-46
2022/07/05 05:21:17;;;;;;;6.50;5.80;;;14.40;99.90;;;;;;5051999;28;20044;-46
2022/07/05 05:23:43;;;;;;;7.38;4.90;;;14.30;99.90;;;;;;5052520;28;20063;-49
2022/07/05 05:26:09;;;;;;;4.95;4.47;;;15.20;99.90;;;;;;5051888;28;20098;-46
2022/07/05 05:28:34;;;;;;;9.23;4.88;;;14.90;99.90;;;;;;5052646;28;20041;-48
2022/07/05 05:31:00;;;;;;;4.55;3.88;;;15.50;99.90;;;;;;5052169;28;20513;-49
2022/07/05 05:33:26;;;;;;;4.07;3.30;;;15.80;99.90;;;;;;5051940;28;20049;-48
2022/07/05 05:35:52;;;;;;;4.25;3.40;;;15.50;99.90;;;;;;5051990;28;20147;-48
2022/07/05 05:38:17;;;;;;;4.63;3.17;;;15.70;99.90;;;;;;5052220;28;20281;-47
2022/07/05 05:40:44;;;;;;;4.43;3.20;;;15.80;99.90;;;;;;5052299;28;20112;-44
2022/07/05 05:43:10;;;;;;;4.30;3.13;;;16.00;99.90;;;;;;5051976;28;20479;-45
2022/07/05 05:45:36;;;;;;;4.65;3.03;;;16.10;99.90;;;;;;5052237;28;20041;-46
2022/07/05 05:48:02;;;;;;;4.20;3.40;;;16.30;99.90;;;;;;5051783;28;20521;-47
2022/07/05 05:50:32;;;;;;;3.55;2.83;;;16.40;99.90;;;;;;5052077;28;20056;-46
2022/07/05 05:52:58;;;;;;;4.93;2.75;;;16.60;99.90;;;;;;5052028;28;20095;-46
2022/07/05 05:55:25;;;;;;;3.13;2.17;;;17.00;99.90;;;;;;5049937;28;20123;-46
2022/07/05 05:57:52;;;;;;;5.43;1.75;;;17.60;99.90;;;;;;5051360;28;20040;-47
2022/07/05 06:00:19;;;;;;;2.08;1.20;;;19.60;99.90;;;;;;5051324;28;20037;-47
2022/07/05 06:02:46;;;;;;;4.13;1.40;;;21.40;99.90;;;;;;5051359;28;20041;-45
2022/07/05 06:05:12;;;;;;;3.95;1.20;;;23.20;99.90;;;;;;5051098;28;20663;-47
2022/07/05 06:07:46;;;;;;;2.67;0.98;;;22.40;96.70;;;;;;5051534;28;20045;-48
2022/07/05 06:10:16;;;;;;;3.67;1.00;;;22.00;94.60;;;;;;5050460;28;20055;-46
2022/07/05 06:12:41;;;;;;;2.47;1.27;;;22.10;95.00;;;;;;5049992;28;20781;-48
2022/07/05 06:15:08;;;;;;;3.67;1.02;;;22.70;93.80;;;;;;5050361;28;20049;-47
2022/07/05 06:17:37;;;;;;;4.47;0.85;;;23.20;92.50;;;;;;5050528;28;20047;-47
2022/07/05 06:20:08;;;;;;;3.80;1.15;;;23.40;91.00;;;;;;5050126;28;20040;-48
2022/07/05 06:22:34;;;;;;;3.20;0.80;;;23.20;91.70;;;;;;5049617;28;20041;-49
2022/07/05 06:25:00;;;;;;;2.10;0.60;;;23.80;91.60;;;;;;5050253;28;20491;-48
2022/07/05 06:27:25;;;;;;;2.70;0.50;;;24.80;90.40;;;;;;5049945;28;20064;-49
2022/07/05 06:29:51;;;;;;;1.67;0.47;;;25.90;87.30;;;;;;5050099;28;20045;-50
2022/07/05 06:32:17;;;;;;;1.42;0.50;;;26.80;83.20;;;;;;5050034;28;20052;-48
2022/07/05 06:34:42;;;;;;;1.50;0.40;;;27.10;78.10;;;;;;5050166;28;20044;-50
2022/07/05 06:37:08;;;;;;;2.63;0.40;;;27.90;75.30;;;;;;5049543;28;20048;-50
2022/07/05 06:39:34;;;;;;;4.85;0.50;;;26.40;78.20;;;;;;5049506;28;20044;-48
2022/07/05 06:41:59;;;;;;;3.67;0.50;;;27.30;77.10;;;;;;5050171;28;20037;-48
2022/07/05 06:44:25;;;;;;;1.63;0.30;;;29.00;73.20;;;;;;5049353;28;20037;-51
2022/07/05 06:46:51;;;;;;;3.20;0.43;;;29.80;70.60;;;;;;5050019;28;20136;-50
2022/07/05 06:49:16;;;;;;;2.72;0.40;;;30.60;68.30;;;;;;5048986;28;20128;-51
2022/07/05 06:51:42;;;;;;;0.90;0.30;;;31.30;65.10;;;;;;5049248;28;20103;-51
2022/07/05 06:54:08;;;;;;;2.25;0.47;;;32.30;63.40;;;;;;5049317;28;20041;-51
2022/07/05 06:56:33;;;;;;;2.47;0.45;;;33.20;61.30;;;;;;5047707;28;20075;-52
2022/07/05 06:58:59;;;;;;;2.45;0.30;;;33.90;58.70;;;;;;5049260;28;20048;-52
2022/07/05 07:01:24;;;;;;;2.88;0.40;;;34.40;57.10;;;;;;5048906;28;20045;-54
2022/07/05 07:03:50;;;;;;;4.05;0.30;;;34.70;56.30;;;;;;5048517;28;20049;-54
2022/07/05 07:06:16;;;;;;;2.55;0.30;;;35.10;54.40;;;;;;5046861;28;20116;-55
2022/07/05 07:11:26;;;;;;;3.47;0.30;;;36.10;52.10;;;;;;5010803;28;1085406;-55
2022/07/05 07:13:52;;;;;;;1.45;0.13;;;36.70;50.90;;;;;;5032390;28;20497;-53
2022/07/05 07:16:18;;;;;;;2.35;0.17;;;37.20;50.40;;;;;;5045771;28;20041;-54
2022/07/05 07:18:44;;;;;;;1.65;0.28;;;37.30;49.30;;;;;;5046882;28;20106;-53
2022/07/05 07:21:09;;;;;;;3.58;0.30;;;37.30;47.90;;;;;;5045598;28;20139;-52
2022/07/05 07:23:36;;;;;;;2.67;0.30;;;37.40;47.10;;;;;;5047224;28;20469;-52
2022/07/05 07:26:02;;;;;;;2.25;0.10;;;37.90;47.80;;;;;;5047475;28;20049;-47
2022/07/05 07:28:28;;;;;;;0.80;0.22;;;38.40;47.10;;;;;;5049370;28;20049;-47
2022/07/05 07:30:54;;;;;;;0.75;0.20;;;38.70;45.30;;;;;;5048894;28;20045;-48
2022/07/05 07:33:19;;;;;;;2.60;0.30;;;39.50;45.60;;;;;;5049282;28;20049;-51
2022/07/05 07:35:45;;;;;;;2.03;0.40;;;37.70;45.30;;;;;;5048512;28;20483;-47
2022/07/05 07:38:11;;;;;;;1.45;0.20;;;37.30;45.70;;;;;;5049611;28;20080;-46
2022/07/05 07:40:36;;;;;;;2.80;0.20;;;34.80;46.60;;;;;;5047711;28;20478;-51
2022/07/05 07:43:02;;;;;;;2.08;0.10;;;33.70;48.10;;;;;;5049149;28;20068;-47
2022/07/05 07:45:30;;;;;;;3.30;0.30;;;31.80;47.90;;;;;;5049125;28;20048;-46
2022/07/05 07:47:56;;;;;;;2.50;0.10;;;31.80;49.50;;;;;;5049121;28;20083;-47
2022/07/05 07:50:22;;;;;;;1.48;0.15;;;30.30;50.70;;;;;;5049073;28;20456;-46
2022/07/05 07:52:48;;;;;;;3.65;0.20;;;29.10;51.70;;;;;;5049416;28;20041;-45
2022/07/05 07:55:15;;;;;;;2.45;0.28;;;29.20;52.80;;;;;;5048985;28;20099;-46
2022/07/05 07:57:41;;;;;;;2.15;0.30;;;28.90;53.00;;;;;;5048949;28;20084;-48
2022/07/05 08:00:07;;;;;;;1.98;0.30;;;28.50;53.50;;;;;;5049116;28;20044;-47
2022/07/05 08:02:33;;;;;;;3.10;0.75;;;29.40;53.60;;;;;;5049085;28;20041;-45
2022/07/05 08:04:59;;;;;;;3.83;0.30;;;31.10;53.10;;;;;;5049121;28;20437;-47
2022/07/05 08:07:25;;;;;;;1.65;0.10;;;32.10;51.10;;;;;;5048805;28;20498;-46
2022/07/05 08:09:52;;;;;;;1.40;0.10;;;31.20;50.20;;;;;;5048971;28;20275;-48
2022/07/05 08:12:18;;;;;;;4.10;0.20;;;29.90;50.70;;;;;;5048635;28;20060;-47
2022/07/05 08:14:45;;;;;;;2.40;0.20;;;28.40;52.30;;;;;;5049239;28;20045;-46
2022/07/05 08:17:12;;;;;;;1.85;0.10;;;27.30;53.90;;;;;;5049003;28;20124;-46
2022/07/05 08:22:23;;;;;;;0.85;0.10;;;28.20;54.10;;;;;;5049748;28;20551;-45
2022/07/05 08:24:49;;;;;;;4.47;0.40;;;27.60;54.40;;;;;;5049048;28;20051;-47
2022/07/05 08:27:15;;;;;;;2.03;0.28;;;27.00;55.50;;;;;;5048345;28;20040;-45
2022/07/05 08:29:42;;;;;;;2.33;0.20;;;26.40;57.30;;;;;;5047258;28;20295;-47
2022/07/05 08:32:08;;;;;;;1.92;0.20;;;25.70;57.50;;;;;;5048650;28;20072;-46
2022/07/05 08:34:33;;;;;;;5.65;0.20;;;25.20;58.80;;;;;;5048049;28;20102;-45
2022/07/05 08:36:59;;;;;;;3.03;0.15;;;25.00;59.30;;;;;;5048586;28;20037;-46
2022/07/05 08:39:26;;;;;;;2.17;0.10;;;24.50;59.40;;;;;;5048513;28;20048;-45
2022/07/05 08:41:52;;;;;;;2.95;0.28;;;24.20;60.70;;;;;;5048424;28;20438;-46
2022/07/05 08:44:19;;;;;;;3.03;0.20;;;24.10;61.60;;;;;;5047421;28;20048;-44
2022/07/05 08:46:47;;;;;;;3.15;0.13;;;24.60;61.80;;;;;;5048711;28;20090;-45
2022/07/05 08:49:14;;;;;;;1.42;0.20;;;25.40;61.60;;;;;;5048912;28;20033;-46
2022/07/05 08:51:42;;;;;;;2.05;0.15;;;26.20;60.60;;;;;;5048785;28;20045;-46
2022/07/05 08:54:12;;;;;;;3.17;0.32;;;27.00;65.70;;;;;;5048588;28;20048;-46
2022/07/05 08:56:40;;;;;;;2.65;0.20;;;29.10;58.20;;;;;;5048038;28;20386;-46
2022/07/05 08:59:06;;;;;;;3.22;0.10;;;31.10;54.70;;;;;;5048178;28;20052;-50
2022/07/05 09:01:34;;;;;;;1.75;0.20;;;32.80;52.30;;;;;;5047738;28;20041;-47
2022/07/05 09:04:03;;;;;;;2.92;0.20;;;33.50;50.20;;;;;;5048304;28;20045;-48
2022/07/05 09:06:32;;;;;;;1.30;0.20;;;31.70;49.70;;;;;;5048115;28;20067;-48
2022/07/05 09:08:59;;;;;;;1.42;0.38;;;31.50;49.50;;;;;;5048234;28;20041;-46
2022/07/05 09:11:36;;;;;;;2.55;0.20;;;30.40;50.50;;;;;;5047077;28;20139;-46
2022/07/05 09:14:04;;;;;;;2.75;0.13;;;29.50;51.40;;;;;;5047972;28;20045;-45
2022/07/05 09:16:31;;;;;;;2.67;0.35;;;29.80;52.40;;;;;;5047708;28;20049;-46
2022/07/05 09:19:07;;;;;;;5.03;0.20;;;29.80;52.10;;;;;;5047646;28;20076;-46
2022/07/05 09:21:33;;;;;;;2.28;0.20;;;30.30;53.10;;;;;;5047879;28;20116;-47
2022/07/05 09:24:05;;;;;;;2.47;0.20;;;31.70;52.30;;;;;;5048156;28;20752;-47
2022/07/05 09:26:37;;;;;;;2.00;0.20;;;33.10;50.90;;;;;;5047838;28;20076;-51
2022/07/05 09:29:09;;;;;;;3.30;0.32;;;34.60;49.60;;;;;;5048106;28;20051;-49
2022/07/05 09:31:36;;;;;;;1.85;0.50;;;35.60;47.90;;;;;;5047878;28;20037;-49
2022/07/05 09:34:10;;;;;;;1.45;0.13;;;36.10;47.10;;;;;;5047888;28;20502;-47
2022/07/05 09:36:51;;;;;;;3.00;0.10;;;35.90;45.80;;;;;;5047866;28;20304;-50
2022/07/05 09:39:18;;;;;;;3.55;0.10;;;35.50;46.70;;;;;;5048063;28;20063;-51
2022/07/05 09:41:44;;;;;;;2.55;0.20;;;35.40;45.40;;;;;;5047617;28;20040;-49
2022/07/05 09:44:10;;;;;;;1.10;0.15;;;34.70;45.20;;;;;;5047851;28;20149;-50
2022/07/05 09:46:35;;;;;;;2.28;0.20;;;33.70;45.40;;;;;;5047897;28;20179;-46
2022/07/05 09:49:01;;;;;;;2.58;0.20;;;32.40;46.00;;;;;;5047850;28;20045;-46
2022/07/05 09:51:27;;;;;;;3.15;0.20;;;31.10;47.00;;;;;;5047801;28;20037;-48
2022/07/05 09:53:56;;;;;;;3.20;0.10;;;29.90;49.50;;;;;;5046248;28;20076;-46
2022/07/05 09:56:22;;;;;;;1.00;0.20;;;28.90;49.60;;;;;;5047871;28;20049;-47
2022/07/05 09:58:48;;;;;;;2.38;0.20;;;28.00;53.90;;;;;;5049231;28;20483;-45
2022/07/05 10:01:31;;;;;;;2.67;0.20;;;27.20;52.30;;;;;;5051529;28;20049;-47
2022/07/05 10:03:58;;;;;;;2.67;0.20;;;26.70;53.70;;;;;;5051867;28;20525;-46
2022/07/05 10:06:26;;;;;;;2.50;0.30;;;26.00;54.00;;;;;;5051518;28;20490;-46
2022/07/05 10:08:55;;;;;;;2.63;0.13;;;25.40;54.60;;;;;;5051309;28;20391;-46
2022/07/05 10:11:23;;;;;;;1.52;0.10;;;24.60;55.70;;;;;;5050440;28;20507;-45
2022/07/05 10:13:53;;;;;;;2.97;0.20;;;24.00;59.30;;;;;;5051078;28;20102;-46
2022/07/05 10:16:22;;;;;;;1.70;0.10;;;23.40;58.80;;;;;;5050973;28;20049;-46
2022/07/05 10:18:54;;;;;;;3.88;0.50;;;23.00;60.10;;;;;;5050834;28;20045;-46
2022/07/05 10:21:21;;;;;;;2.63;0.20;;;22.90;61.20;;;;;;5051028;28;20044;-47
2022/07/05 10:23:53;;;;;;;3.15;0.30;;;23.10;61.10;;;;;;5050894;28;20128;-45
2022/07/05 10:26:20;;;;;;;2.30;0.20;;;23.30;61.20;;;;;;5050901;28;20140;-45
2022/07/05 10:28:49;;;;;;;2.08;0.20;;;23.40;61.00;;;;;;5050999;28;20033;-45
2022/07/05 10:31:16;;;;;;;2.47;0.32;;;23.30;60.90;;;;;;5050697;28;20045;-45
2022/07/05 10:33:42;;;;;;;3.80;0.20;;;23.30;60.80;;;;;;5050419;28;20033;-46
2022/07/05 10:36:10;;;;;;;1.35;0.10;;;23.10;61.30;;;;;;5050617;28;20352;-44
2022/07/05 10:38:39;;;;;;;3.45;0.20;;;23.00;62.50;;;;;;5050060;28;20052;-46
2022/07/05 10:41:07;;;;;;;3.75;0.40;;;22.90;63.40;;;;;;5050263;28;20043;-44
2022/07/05 10:43:33;;;;;;;2.35;0.17;;;22.90;64.70;;;;;;5050034;28;20110;-46
2022/07/05 10:45:59;;;;;;;0.82;0.10;;;23.10;64.10;;;;;;5050416;28;20040;-45
2022/07/05 10:48:27;;;;;;;5.13;0.20;;;23.00;63.70;;;;;;5050162;28;20045;-46
2022/07/05 10:50:53;;;;;;;3.63;0.68;;;23.00;63.50;;;;;;5049102;28;20044;-46
2022/07/05 10:53:42;;;;;;;1.65;0.20;;;23.00;63.90;;;;;;5049317;28;20403;-47
2022/07/05 10:56:07;;;;;;;5.13;0.30;;;23.10;64.10;;;;;;5046830;28;20076;-45
2022/07/05 10:58:36;;;;;;;0.68;0.10;;;23.60;63.30;;;;;;5049648;28;20080;-45
2022/07/05 11:01:23;;;;;;;5.68;0.20;;;23.80;63.30;;;;;;5050170;28;20340;-46
2022/07/05 11:04:27;;;;;;;1.67;0.10;;;23.80;63.70;;;;;;5050384;28;20041;-47
2022/07/05 11:06:53;;;;;;;1.70;0.20;;;23.80;63.10;;;;;;5049898;28;20081;-45
2022/07/05 11:09:20;;;;;;;3.35;0.30;;;23.80;62.70;;;;;;5049179;28;20469;-45
2022/07/05 11:11:52;;;;;;;2.28;0.43;;;23.60;62.10;;;;;;5048461;28;20103;-45
2022/07/05 11:14:25;;;;;;;1.38;0.40;;;23.50;62.90;;;;;;5049939;28;20041;-46
2022/07/05 11:17:11;;;;;;;2.20;0.10;;;23.40;63.10;;;;;;5048046;28;20092;-45
2022/07/05 11:19:59;;;;;;;4.57;0.30;;;23.40;64.10;;;;;;5049821;28;20041;-49
2022/07/05 11:22:25;;;;;;;1.83;0.20;;;23.30;64.10;;;;;;5049782;28;20063;-46
2022/07/05 11:24:51;;;;;;;2.35;0.30;;;23.30;64.20;;;;;;5049768;28;20514;-45
2022/07/05 11:27:17;;;;;;;1.33;0.10;;;23.20;64.40;;;;;;5049704;28;20180;-48
2022/07/05 11:29:53;;;;;;;1.75;0.20;;;23.20;65.00;;;;;;5049493;28;20041;-45
2022/07/05 11:32:22;;;;;;;4.75;0.60;;;;;;;;;;5049740;28;20040;-45
2022/07/05 11:34:53;;;;;;;4.85;0.30;;;22.90;64.60;;;;;;5049265;28;20119;-45
2022/07/05 11:37:24;;;;;;;1.30;0.20;;;22.50;66.10;;;;;;5049077;28;20086;-45
2022/07/05 11:40:10;;;;;;;2.55;0.20;;;22.30;65.90;;;;;;5049310;28;20056;-45
2022/07/05 11:42:46;;;;;;;2.35;0.10;;;22.30;67.60;;;;;;5047872;28;20410;-47
2022/07/05 11:45:12;;;;;;;1.90;0.25;;;22.40;68.30;;;;;;5049482;28;20037;-46
2022/07/05 11:47:39;;;;;;;5.75;0.52;;;22.60;68.70;;;;;;5049061;28;20052;-46
2022/07/05 11:50:05;;;;;;;2.05;0.30;;;22.70;68.30;;;;;;5049289;28;20044;-46
2022/07/05 11:52:33;;;;;;;2.47;0.40;;;22.80;68.20;;;;;;5049104;28;20040;-44
2022/07/05 11:55:02;;;;;;;5.22;0.40;;;22.90;69.30;;;;;;5048647;28;20419;-47
2022/07/05 11:57:27;;;;;;;2.28;0.10;;;23.00;67.40;;;;;;5049115;28;20379;-45
2022/07/05 11:59:53;;;;;;;2.90;0.17;;;23.10;66.00;;;;;;5048979;28;20051;-47
2022/07/05 12:02:19;;;;;;;1.73;0.15;;;23.10;65.50;;;;;;5049232;28;20037;-46
2022/07/05 12:04:50;;;;;;;2.75;0.30;;;23.10;65.90;;;;;;5048873;28;20041;-45
2022/07/05 12:07:33;;;;;;;2.08;0.20;;;22.90;66.70;;;;;;5048777;28;20517;-48
2022/07/05 12:12:44;;;;;;;2.25;0.30;;;23.20;68.10;;;;;;5048181;28;20152;-45
2022/07/05 12:15:16;;;;;;;3.25;0.20;;;23.30;68.00;;;;;;5047184;28;20649;-46
2022/07/05 12:17:44;;;;;;;3.33;0.30;;;23.30;67.10;;;;;;5048362;28;20509;-45
2022/07/05 12:20:12;;;;;;;1.40;0.30;;;23.10;66.30;;;;;;5048816;28;20047;-45
2022/07/05 12:22:45;;;;;;;2.40;0.10;;;22.80;64.70;;;;;;5048355;28;20246;-46
2022/07/05 12:25:13;;;;;;;2.00;0.20;;;22.60;65.00;;;;;;5048664;28;20073;-46
2022/07/05 12:27:41;;;;;;;2.60;0.20;;;22.50;66.00;;;;;;5048832;28;20041;-44
2022/07/05 12:30:09;;;;;;;5.43;0.60;;;22.70;67.00;;;;;;5048664;28;20048;-45
2022/07/05 12:32:56;;;;;;;12.55;2.10;;;23.00;68.10;;;;;;5048610;28;20045;-45
2022/07/05 12:35:42;;;;;;;1.48;0.10;;;23.00;68.50;;;;;;5048251;28;20047;-45
2022/07/05 12:38:14;;;;;;;1.02;0.10;;;23.00;69.60;;;;;;5048122;28;20053;-45
2022/07/05 12:40:42;;;;;;;2.97;0.30;;;22.80;69.10;;;;;;5048409;28;20037;-45
2022/07/05 12:43:09;;;;;;;4.70;0.80;;;22.70;67.60;;;;;;5048236;28;20048;-44
2022/07/05 12:45:36;;;;;;;3.38;0.22;;;22.50;66.50;;;;;;5048097;28;20033;-46
2022/07/05 12:48:04;;;;;;;2.30;0.20;;;22.40;66.40;;;;;;5047648;28;20399;-45
2022/07/05 12:50:47;;;;;;;1.92;0.30;;;22.50;67.30;;;;;;5048185;28;20158;-46
2022/07/05 12:58:50;;;;;;;4.70;0.40;;;23.40;67.50;;;;;;5047780;28;20060;-46
2022/07/05 13:01:28;;;;;;;4.75;0.30;;;23.80;67.90;;;;;;5048103;28;20036;-44
2022/07/05 13:04:13;;;;;;;4.70;0.30;;;24.00;68.70;;;;;;5046416;28;20112;-46